sensor_id;sensor_type;location;lat;lon;timestamp;P1;durP1;ratioP1;P2;durP2;ratioP2
74269;SDS011;62754;48.252;11.654;2023-04-03T00:00:30;6.70;;;3.83;;
74269;SDS011;62754;48.252;11.654;2023-04-03T00:02:56;8.50;;;4.07;;
74269;SDS011;62754;48.252;11.654;2023-04-03T00:05:22;6.30;;;4.18;;
74269;SDS011;62754;48.252;11.654;2023-04-03T00:07:49;10.48;;;3.78;;
74269;SDS011;62754;48.252;11.654;2023-04-03T00:10:20;6.75;;;4.68;;
74269;SDS011;62754;48.252;11.654;2023-04-03T00:12:46;6.00;;;3.90;;
74269;SDS011;62754;48.252;11.654;2023-04-03T00:15:14;6.50;;;4.35;;
74269;SDS011;62754;48.252;11.654;2023-04-03T00:17:42;7.78;;;4.22;;
74269;SDS011;62754;48.252;11.654;2023-04-03T00:20:10;6.18;;;4.03;;
74269;SDS011;62754;48.252;11.654;2023-04-03T00:22:39;9.48;;;4.43;;
74269;SDS011;62754;48.252;11.654;2023-04-03T00:25:05;6.45;;;3.88;;
74269;SDS011;62754;48.252;11.654;2023-04-03T00:27:35;7.63;;;4.43;;
74269;SDS011;62754;48.252;11.654;2023-04-03T00:30:03;6.32;;;3.92;;
74269;SDS011;62754;48.252;11.654;2023-04-03T00:32:33;6.57;;;4.38;;
74269;SDS011;62754;48.252;11.654;2023-04-03T00:34:58;5.95;;;3.63;;
74269;SDS011;62754;48.252;11.654;2023-04-03T00:37:26;6.57;;;3.58;;
74269;SDS011;62754;48.252;11.654;2023-04-03T00:39:55;6.22;;;4.05;;
74269;SDS011;62754;48.252;11.654;2023-04-03T00:42:20;5.50;;;3.90;;
74269;SDS011;62754;48.252;11.654;2023-04-03T00:47:15;5.70;;;4.22;;
74269;SDS011;62754;48.252;11.654;2023-04-03T00:49:43;9.13;;;5.15;;
74269;SDS011;62754;48.252;11.654;2023-04-03T00:52:13;6.72;;;4.38;;
74269;SDS011;62754;48.252;11.654;2023-04-03T00:54:47;7.25;;;4.05;;
74269;SDS011;62754;48.252;11.654;2023-04-03T00:57:15;6.97;;;4.07;;
74269;SDS011;62754;48.252;11.654;2023-04-03T00:59:43;6.28;;;3.55;;
74269;SDS011;62754;48.252;11.654;2023-04-03T01:02:17;6.63;;;3.58;;
74269;SDS011;62754;48.252;11.654;2023-04-03T01:04:46;5.88;;;4.03;;
74269;SDS011;62754;48.252;11.654;2023-04-03T01:09:49;6.30;;;3.75;;
74269;SDS011;62754;48.252;11.654;2023-04-03T01:14:51;6.13;;;3.45;;
74269;SDS011;62754;48.252;11.654;2023-04-03T01:17:38;7.43;;;4.03;;
74269;SDS011;62754;48.252;11.654;2023-04-03T01:25:26;5.53;;;3.90;;
74269;SDS011;62754;48.252;11.654;2023-04-03T01:27:54;6.28;;;3.40;;
74269;SDS011;62754;48.252;11.654;2023-04-03T01:30:21;4.82;;;3.20;;
74269;SDS011;62754;48.252;11.654;2023-04-03T01:32:53;4.70;;;3.17;;
74269;SDS011;62754;48.252;11.654;2023-04-03T01:35:23;4.63;;;3.08;;
74269;SDS011;62754;48.252;11.654;2023-04-03T01:37:49;5.32;;;3.30;;
74269;SDS011;62754;48.252;11.654;2023-04-03T01:40:17;5.88;;;3.42;;
74269;SDS011;62754;48.252;11.654;2023-04-03T01:42:45;4.60;;;2.97;;
74269;SDS011;62754;48.252;11.654;2023-04-03T01:45:11;6.30;;;3.13;;
74269;SDS011;62754;48.252;11.654;2023-04-03T01:47:37;4.35;;;2.90;;
74269;SDS011;62754;48.252;11.654;2023-04-03T01:50:05;6.13;;;3.15;;
74269;SDS011;62754;48.252;11.654;2023-04-03T01:52:33;7.70;;;3.30;;
74269;SDS011;62754;48.252;11.654;2023-04-03T01:55:01;4.68;;;2.85;;
74269;SDS011;62754;48.252;11.654;2023-04-03T01:57:29;4.95;;;3.03;;
74269;SDS011;62754;48.252;11.654;2023-04-03T01:59:55;6.00;;;3.08;;
74269;SDS011;62754;48.252;11.654;2023-04-03T02:02:23;4.30;;;2.90;;
74269;SDS011;62754;48.252;11.654;2023-04-03T02:04:51;5.20;;;2.92;;
74269;SDS011;62754;48.252;11.654;2023-04-03T02:07:19;5.97;;;3.63;;
74269;SDS011;62754;48.252;11.654;2023-04-03T02:09:45;5.80;;;3.00;;
74269;SDS011;62754;48.252;11.654;2023-04-03T02:12:11;4.78;;;3.00;;
74269;SDS011;62754;48.252;11.654;2023-04-03T02:14:39;5.13;;;2.60;;
74269;SDS011;62754;48.252;11.654;2023-04-03T02:17:04;4.65;;;2.70;;
74269;SDS011;62754;48.252;11.654;2023-04-03T02:19:30;5.03;;;2.47;;
74269;SDS011;62754;48.252;11.654;2023-04-03T02:21:56;6.30;;;3.03;;
74269;SDS011;62754;48.252;11.654;2023-04-03T02:24:22;5.03;;;2.70;;
74269;SDS011;62754;48.252;11.654;2023-04-03T02:26:50;3.58;;;2.60;;
74269;SDS011;62754;48.252;11.654;2023-04-03T02:29:16;4.15;;;2.63;;
74269;SDS011;62754;48.252;11.654;2023-04-03T02:31:43;4.97;;;2.65;;
74269;SDS011;62754;48.252;11.654;2023-04-03T02:34:11;3.70;;;2.40;;
74269;SDS011;62754;48.252;11.654;2023-04-03T02:36:40;4.38;;;2.40;;
74269;SDS011;62754;48.252;11.654;2023-04-03T02:39:07;5.13;;;2.45;;
74269;SDS011;62754;48.252;11.654;2023-04-03T02:41:38;4.03;;;2.70;;
74269;SDS011;62754;48.252;11.654;2023-04-03T02:44:08;5.78;;;2.78;;
74269;SDS011;62754;48.252;11.654;2023-04-03T02:46:37;4.18;;;2.63;;
74269;SDS011;62754;48.252;11.654;2023-04-03T02:49:07;4.28;;;2.45;;
74269;SDS011;62754;48.252;11.654;2023-04-03T02:51:33;4.80;;;2.58;;
74269;SDS011;62754;48.252;11.654;2023-04-03T02:53:58;4.55;;;2.28;;
74269;SDS011;62754;48.252;11.654;2023-04-03T02:56:29;5.05;;;2.72;;
74269;SDS011;62754;48.252;11.654;2023-04-03T02:58:57;3.90;;;2.65;;
74269;SDS011;62754;48.252;11.654;2023-04-03T03:01:25;3.28;;;2.10;;
74269;SDS011;62754;48.252;11.654;2023-04-03T03:03:51;4.22;;;2.47;;
74269;SDS011;62754;48.252;11.654;2023-04-03T03:06:19;4.47;;;2.22;;
74269;SDS011;62754;48.252;11.654;2023-04-03T03:08:47;4.13;;;2.38;;
74269;SDS011;62754;48.252;11.654;2023-04-03T03:11:12;4.03;;;2.20;;
74269;SDS011;62754;48.252;11.654;2023-04-03T03:13:38;5.60;;;2.60;;
74269;SDS011;62754;48.252;11.654;2023-04-03T03:16:04;4.50;;;2.60;;
74269;SDS011;62754;48.252;11.654;2023-04-03T03:18:36;4.13;;;2.40;;
74269;SDS011;62754;48.252;11.654;2023-04-03T03:21:02;3.72;;;2.22;;
74269;SDS011;62754;48.252;11.654;2023-04-03T03:23:29;4.05;;;2.13;;
74269;SDS011;62754;48.252;11.654;2023-04-03T03:26:00;4.35;;;2.33;;
74269;SDS011;62754;48.252;11.654;2023-04-03T03:28:29;4.18;;;2.40;;
74269;SDS011;62754;48.252;11.654;2023-04-03T03:30:57;5.55;;;3.00;;
74269;SDS011;62754;48.252;11.654;2023-04-03T03:33:26;5.32;;;2.55;;
74269;SDS011;62754;48.252;11.654;2023-04-03T03:35:56;5.45;;;2.50;;
74269;SDS011;62754;48.252;11.654;2023-04-03T03:38:24;4.70;;;2.63;;
74269;SDS011;62754;48.252;11.654;2023-04-03T03:40:50;5.45;;;2.50;;
74269;SDS011;62754;48.252;11.654;2023-04-03T03:43:19;3.38;;;2.28;;
74269;SDS011;62754;48.252;11.654;2023-04-03T03:45:51;4.55;;;2.20;;
74269;SDS011;62754;48.252;11.654;2023-04-03T03:48:20;5.63;;;2.53;;
74269;SDS011;62754;48.252;11.654;2023-04-03T03:50:48;5.05;;;2.42;;
74269;SDS011;62754;48.252;11.654;2023-04-03T03:53:17;4.63;;;2.50;;
74269;SDS011;62754;48.252;11.654;2023-04-03T03:55:42;5.68;;;2.50;;
74269;SDS011;62754;48.252;11.654;2023-04-03T03:58:10;4.93;;;2.80;;
74269;SDS011;62754;48.252;11.654;2023-04-03T04:00:39;4.28;;;2.50;;
74269;SDS011;62754;48.252;11.654;2023-04-03T04:03:04;3.63;;;2.22;;
74269;SDS011;62754;48.252;11.654;2023-04-03T04:05:30;4.25;;;2.40;;
74269;SDS011;62754;48.252;11.654;2023-04-03T04:07:56;4.47;;;2.50;;
74269;SDS011;62754;48.252;11.654;2023-04-03T04:10:24;3.70;;;2.15;;
74269;SDS011;62754;48.252;11.654;2023-04-03T04:12:49;4.15;;;2.38;;
74269;SDS011;62754;48.252;11.654;2023-04-03T04:15:20;6.28;;;2.45;;
74269;SDS011;62754;48.252;11.654;2023-04-03T04:17:48;3.65;;;2.40;;
74269;SDS011;62754;48.252;11.654;2023-04-03T04:20:14;3.80;;;2.35;;
74269;SDS011;62754;48.252;11.654;2023-04-03T04:22:42;4.57;;;2.65;;
74269;SDS011;62754;48.252;11.654;2023-04-03T04:25:10;4.25;;;2.58;;
74269;SDS011;62754;48.252;11.654;2023-04-03T04:27:36;6.82;;;2.63;;
74269;SDS011;62754;48.252;11.654;2023-04-03T04:30:04;5.82;;;3.13;;
74269;SDS011;62754;48.252;11.654;2023-04-03T04:32:30;4.85;;;2.50;;
74269;SDS011;62754;48.252;11.654;2023-04-03T04:34:56;4.38;;;2.70;;
74269;SDS011;62754;48.252;11.654;2023-04-03T04:37:24;4.38;;;2.65;;
74269;SDS011;62754;48.252;11.654;2023-04-03T04:39:57;4.65;;;2.65;;
74269;SDS011;62754;48.252;11.654;2023-04-03T04:42:26;4.95;;;3.10;;
74269;SDS011;62754;48.252;11.654;2023-04-03T04:44:55;6.25;;;3.10;;
74269;SDS011;62754;48.252;11.654;2023-04-03T04:47:23;5.00;;;2.53;;
74269;SDS011;62754;48.252;11.654;2023-04-03T04:49:49;5.22;;;2.65;;
74269;SDS011;62754;48.252;11.654;2023-04-03T04:52:14;4.45;;;2.67;;
74269;SDS011;62754;48.252;11.654;2023-04-03T04:54:40;5.35;;;2.88;;
74269;SDS011;62754;48.252;11.654;2023-04-03T04:57:06;4.03;;;2.72;;
74269;SDS011;62754;48.252;11.654;2023-04-03T04:59:34;4.15;;;2.63;;
74269;SDS011;62754;48.252;11.654;2023-04-03T05:02:04;4.78;;;2.42;;
74269;SDS011;62754;48.252;11.654;2023-04-03T05:04:32;4.40;;;2.80;;
74269;SDS011;62754;48.252;11.654;2023-04-03T05:06:58;5.10;;;2.72;;
74269;SDS011;62754;48.252;11.654;2023-04-03T05:09:26;5.00;;;2.95;;
74269;SDS011;62754;48.252;11.654;2023-04-03T05:11:54;5.18;;;2.58;;
74269;SDS011;62754;48.252;11.654;2023-04-03T05:14:23;5.28;;;3.03;;
74269;SDS011;62754;48.252;11.654;2023-04-03T05:16:49;6.72;;;3.00;;
74269;SDS011;62754;48.252;11.654;2023-04-03T05:19:17;7.85;;;2.97;;
74269;SDS011;62754;48.252;11.654;2023-04-03T05:21:45;6.35;;;2.85;;
74269;SDS011;62754;48.252;11.654;2023-04-03T05:24:11;4.32;;;2.55;;
74269;SDS011;62754;48.252;11.654;2023-04-03T05:26:37;5.10;;;2.85;;
74269;SDS011;62754;48.252;11.654;2023-04-03T05:29:03;4.78;;;3.00;;
74269;SDS011;62754;48.252;11.654;2023-04-03T05:31:28;4.32;;;2.90;;
74269;SDS011;62754;48.252;11.654;2023-04-03T05:33:57;5.15;;;3.10;;
74269;SDS011;62754;48.252;11.654;2023-04-03T05:36:26;5.40;;;2.97;;
74269;SDS011;62754;48.252;11.654;2023-04-03T05:38:52;4.78;;;2.75;;
74269;SDS011;62754;48.252;11.654;2023-04-03T05:41:18;6.18;;;3.33;;
74269;SDS011;62754;48.252;11.654;2023-04-03T05:43:44;7.50;;;3.03;;
74269;SDS011;62754;48.252;11.654;2023-04-03T05:46:14;5.28;;;2.90;;
74269;SDS011;62754;48.252;11.654;2023-04-03T05:48:44;7.55;;;3.45;;
74269;SDS011;62754;48.252;11.654;2023-04-03T05:51:22;5.38;;;3.10;;
74269;SDS011;62754;48.252;11.654;2023-04-03T05:53:55;4.70;;;2.83;;
74269;SDS011;62754;48.252;11.654;2023-04-03T05:56:28;6.53;;;3.03;;
74269;SDS011;62754;48.252;11.654;2023-04-03T05:58:59;6.40;;;3.05;;
74269;SDS011;62754;48.252;11.654;2023-04-03T06:01:25;6.38;;;3.20;;
74269;SDS011;62754;48.252;11.654;2023-04-03T06:03:50;4.90;;;3.05;;
74269;SDS011;62754;48.252;11.654;2023-04-03T06:06:18;4.53;;;2.88;;
74269;SDS011;62754;48.252;11.654;2023-04-03T06:08:47;5.18;;;3.00;;
74269;SDS011;62754;48.252;11.654;2023-04-03T06:11:16;5.13;;;2.78;;
74269;SDS011;62754;48.252;11.654;2023-04-03T06:13:44;5.25;;;2.80;;
74269;SDS011;62754;48.252;11.654;2023-04-03T06:16:12;5.43;;;3.08;;
74269;SDS011;62754;48.252;11.654;2023-04-03T06:18:38;8.15;;;3.00;;
74269;SDS011;62754;48.252;11.654;2023-04-03T06:21:06;5.32;;;3.28;;
74269;SDS011;62754;48.252;11.654;2023-04-03T06:23:34;5.85;;;3.13;;
74269;SDS011;62754;48.252;11.654;2023-04-03T06:26:02;4.97;;;2.92;;
74269;SDS011;62754;48.252;11.654;2023-04-03T06:28:28;6.35;;;3.50;;
74269;SDS011;62754;48.252;11.654;2023-04-03T06:30:54;6.53;;;3.30;;
74269;SDS011;62754;48.252;11.654;2023-04-03T06:33:20;4.88;;;2.85;;
74269;SDS011;62754;48.252;11.654;2023-04-03T06:35:45;4.03;;;2.53;;
74269;SDS011;62754;48.252;11.654;2023-04-03T06:38:16;5.75;;;3.45;;
74269;SDS011;62754;48.252;11.654;2023-04-03T06:40:41;5.05;;;3.10;;
74269;SDS011;62754;48.252;11.654;2023-04-03T06:43:10;4.50;;;2.78;;
74269;SDS011;62754;48.252;11.654;2023-04-03T06:45:36;5.85;;;3.00;;
74269;SDS011;62754;48.252;11.654;2023-04-03T06:48:02;5.68;;;3.00;;
74269;SDS011;62754;48.252;11.654;2023-04-03T06:50:32;7.15;;;3.25;;
74269;SDS011;62754;48.252;11.654;2023-04-03T06:53:00;7.53;;;3.50;;
74269;SDS011;62754;48.252;11.654;2023-04-03T06:55:28;8.35;;;3.55;;
74269;SDS011;62754;48.252;11.654;2023-04-03T06:57:54;7.93;;;3.92;;
74269;SDS011;62754;48.252;11.654;2023-04-03T07:00:22;7.05;;;3.30;;
74269;SDS011;62754;48.252;11.654;2023-04-03T07:02:48;5.30;;;3.30;;
74269;SDS011;62754;48.252;11.654;2023-04-03T07:05:18;5.28;;;3.38;;
74269;SDS011;62754;48.252;11.654;2023-04-03T07:07:44;5.72;;;3.25;;
74269;SDS011;62754;48.252;11.654;2023-04-03T07:10:10;6.10;;;3.70;;
74269;SDS011;62754;48.252;11.654;2023-04-03T07:12:38;6.35;;;3.78;;
74269;SDS011;62754;48.252;11.654;2023-04-03T07:15:06;6.72;;;3.60;;
74269;SDS011;62754;48.252;11.654;2023-04-03T07:17:37;5.95;;;3.80;;
74269;SDS011;62754;48.252;11.654;2023-04-03T07:20:03;8.68;;;4.55;;
74269;SDS011;62754;48.252;11.654;2023-04-03T07:22:32;7.95;;;4.50;;
74269;SDS011;62754;48.252;11.654;2023-04-03T07:24:58;8.02;;;4.90;;
74269;SDS011;62754;48.252;11.654;2023-04-03T07:27:26;9.20;;;5.00;;
74269;SDS011;62754;48.252;11.654;2023-04-03T07:29:54;10.75;;;5.75;;
74269;SDS011;62754;48.252;11.654;2023-04-03T07:32:20;11.18;;;6.53;;
74269;SDS011;62754;48.252;11.654;2023-04-03T07:34:46;12.15;;;6.18;;
74269;SDS011;62754;48.252;11.654;2023-04-03T07:37:12;7.70;;;5.13;;
74269;SDS011;62754;48.252;11.654;2023-04-03T07:39:40;8.85;;;4.60;;
74269;SDS011;62754;48.252;11.654;2023-04-03T07:42:11;6.03;;;4.13;;
74269;SDS011;62754;48.252;11.654;2023-04-03T07:44:37;5.43;;;3.88;;
74269;SDS011;62754;48.252;11.654;2023-04-03T07:47:02;7.35;;;4.20;;
74269;SDS011;62754;48.252;11.654;2023-04-03T07:49:30;6.20;;;4.43;;
74269;SDS011;62754;48.252;11.654;2023-04-03T07:51:58;8.00;;;4.10;;
74269;SDS011;62754;48.252;11.654;2023-04-03T07:54:24;7.45;;;4.25;;
74269;SDS011;62754;48.252;11.654;2023-04-03T07:56:49;6.88;;;4.05;;
74269;SDS011;62754;48.252;11.654;2023-04-03T07:59:20;7.45;;;4.85;;
74269;SDS011;62754;48.252;11.654;2023-04-03T08:01:47;8.52;;;4.38;;
74269;SDS011;62754;48.252;11.654;2023-04-03T08:04:18;11.05;;;4.78;;
74269;SDS011;62754;48.252;11.654;2023-04-03T08:06:43;6.22;;;3.97;;
74269;SDS011;62754;48.252;11.654;2023-04-03T08:09:09;5.55;;;3.85;;
74269;SDS011;62754;48.252;11.654;2023-04-03T08:11:42;7.10;;;4.13;;
74269;SDS011;62754;48.252;11.654;2023-04-03T08:14:11;6.55;;;4.10;;
74269;SDS011;62754;48.252;11.654;2023-04-03T08:16:42;7.85;;;4.30;;
74269;SDS011;62754;48.252;11.654;2023-04-03T08:19:10;8.27;;;4.18;;
74269;SDS011;62754;48.252;11.654;2023-04-03T08:21:45;6.25;;;4.38;;
74269;SDS011;62754;48.252;11.654;2023-04-03T08:24:17;6.03;;;4.22;;
74269;SDS011;62754;48.252;11.654;2023-04-03T08:26:46;5.78;;;3.72;;
74269;SDS011;62754;48.252;11.654;2023-04-03T08:29:14;6.65;;;4.32;;
74269;SDS011;62754;48.252;11.654;2023-04-03T08:31:44;7.70;;;4.30;;
74269;SDS011;62754;48.252;11.654;2023-04-03T08:34:12;6.97;;;3.72;;
74269;SDS011;62754;48.252;11.654;2023-04-03T08:36:41;6.00;;;4.45;;
74269;SDS011;62754;48.252;11.654;2023-04-03T08:39:10;8.10;;;4.45;;
74269;SDS011;62754;48.252;11.654;2023-04-03T08:49:28;6.90;;;4.32;;
74269;SDS011;62754;48.252;11.654;2023-04-03T08:51:59;5.38;;;4.28;;
74269;SDS011;62754;48.252;11.654;2023-04-03T08:54:30;5.30;;;4.28;;
74269;SDS011;62754;48.252;11.654;2023-04-03T08:56:58;6.85;;;4.40;;
74269;SDS011;62754;48.252;11.654;2023-04-03T08:59:35;6.57;;;4.18;;
74269;SDS011;62754;48.252;11.654;2023-04-03T09:02:13;6.20;;;3.55;;
74269;SDS011;62754;48.252;11.654;2023-04-03T09:04:53;5.20;;;3.50;;
74269;SDS011;62754;48.252;11.654;2023-04-03T09:07:22;5.00;;;3.17;;
74269;SDS011;62754;48.252;11.654;2023-04-03T09:09:59;4.00;;;3.10;;
74269;SDS011;62754;48.252;11.654;2023-04-03T09:15:06;7.72;;;3.75;;
74269;SDS011;62754;48.252;11.654;2023-04-03T09:25:52;6.13;;;3.63;;
74269;SDS011;62754;48.252;11.654;2023-04-03T09:28:23;5.10;;;3.45;;
74269;SDS011;62754;48.252;11.654;2023-04-03T09:30:49;6.13;;;4.03;;
74269;SDS011;62754;48.252;11.654;2023-04-03T09:33:15;5.70;;;3.72;;
74269;SDS011;62754;48.252;11.654;2023-04-03T09:35:45;5.85;;;3.53;;
74269;SDS011;62754;48.252;11.654;2023-04-03T09:45:41;5.40;;;3.38;;
74269;SDS011;62754;48.252;11.654;2023-04-03T09:48:17;4.75;;;3.53;;
74269;SDS011;62754;48.252;11.654;2023-04-03T09:56:00;5.85;;;3.30;;
74269;SDS011;62754;48.252;11.654;2023-04-03T09:58:29;4.93;;;2.95;;
74269;SDS011;62754;48.252;11.654;2023-04-03T10:01:06;3.85;;;2.60;;
74269;SDS011;62754;48.252;11.654;2023-04-03T10:03:35;4.00;;;2.88;;
74269;SDS011;62754;48.252;11.654;2023-04-03T10:06:02;4.65;;;3.00;;
74269;SDS011;62754;48.252;11.654;2023-04-03T10:08:32;5.07;;;2.85;;
74269;SDS011;62754;48.252;11.654;2023-04-03T10:13:52;4.88;;;2.90;;
74269;SDS011;62754;48.252;11.654;2023-04-03T10:16:32;6.18;;;2.88;;
74269;SDS011;62754;48.252;11.654;2023-04-03T10:19:06;3.58;;;2.38;;
74269;SDS011;62754;48.252;11.654;2023-04-03T10:25:18;3.65;;;2.13;;
74269;SDS011;62754;48.252;11.654;2023-04-03T10:27:59;10.00;;;2.65;;
74269;SDS011;62754;48.252;11.654;2023-04-03T10:30:51;3.90;;;2.10;;
74269;SDS011;62754;48.252;11.654;2023-04-03T10:46:59;4.28;;;1.83;;
74269;SDS011;62754;48.252;11.654;2023-04-03T10:57:59;3.88;;;1.83;;
74269;SDS011;62754;48.252;11.654;2023-04-03T11:00:37;4.57;;;2.03;;
74269;SDS011;62754;48.252;11.654;2023-04-03T11:06:21;3.65;;;1.77;;
74269;SDS011;62754;48.252;11.654;2023-04-03T11:08:51;3.78;;;1.70;;
74269;SDS011;62754;48.252;11.654;2023-04-03T11:11:26;5.95;;;1.98;;
74269;SDS011;62754;48.252;11.654;2023-04-03T11:16:38;3.08;;;1.30;;
74269;SDS011;62754;48.252;11.654;2023-04-03T11:19:14;2.63;;;1.50;;
74269;SDS011;62754;48.252;11.654;2023-04-03T11:21:57;2.50;;;1.30;;
74269;SDS011;62754;48.252;11.654;2023-04-03T11:24:27;4.10;;;1.10;;
74269;SDS011;62754;48.252;11.654;2023-04-03T11:26:55;3.28;;;1.27;;
74269;SDS011;62754;48.252;11.654;2023-04-03T11:29:29;4.70;;;1.50;;
74269;SDS011;62754;48.252;11.654;2023-04-03T11:34:52;2.78;;;1.35;;
74269;SDS011;62754;48.252;11.654;2023-04-03T11:42:45;3.03;;;1.20;;
74269;SDS011;62754;48.252;11.654;2023-04-03T11:48:41;2.78;;;1.20;;
74269;SDS011;62754;48.252;11.654;2023-04-03T11:50:51;4.78;;;1.50;;
74269;SDS011;62754;48.252;11.654;2023-04-03T12:04:14;3.33;;;1.15;;
74269;SDS011;62754;48.252;11.654;2023-04-03T12:06:43;3.63;;;1.40;;
74269;SDS011;62754;48.252;11.654;2023-04-03T12:17:54;4.53;;;1.40;;
74269;SDS011;62754;48.252;11.654;2023-04-03T12:23:27;4.00;;;1.25;;
74269;SDS011;62754;48.252;11.654;2023-04-03T12:26:01;3.00;;;1.50;;
74269;SDS011;62754;48.252;11.654;2023-04-03T12:28:45;2.47;;;1.30;;
74269;SDS011;62754;48.252;11.654;2023-04-03T12:31:12;2.92;;;1.30;;
74269;SDS011;62754;48.252;11.654;2023-04-03T12:33:44;4.00;;;1.50;;
74269;SDS011;62754;48.252;11.654;2023-04-03T12:36:17;3.78;;;1.90;;
74269;SDS011;62754;48.252;11.654;2023-04-03T12:41:44;4.05;;;1.40;;
74269;SDS011;62754;48.252;11.654;2023-04-03T12:47:00;3.03;;;1.30;;
74269;SDS011;62754;48.252;11.654;2023-04-03T12:49:39;2.97;;;1.30;;
74269;SDS011;62754;48.252;11.654;2023-04-03T12:55:18;2.58;;;1.30;;
74269;SDS011;62754;48.252;11.654;2023-04-03T12:57:45;2.63;;;1.35;;
74269;SDS011;62754;48.252;11.654;2023-04-03T13:00:27;3.03;;;1.20;;
74269;SDS011;62754;48.252;11.654;2023-04-03T13:02:53;4.53;;;1.63;;
74269;SDS011;62754;48.252;11.654;2023-04-03T13:05:22;4.47;;;1.45;;
74269;SDS011;62754;48.252;11.654;2023-04-03T13:07:56;6.90;;;1.65;;
74269;SDS011;62754;48.252;11.654;2023-04-03T13:10:26;4.57;;;1.25;;
74269;SDS011;62754;48.252;11.654;2023-04-03T13:15:21;2.08;;;1.13;;
74269;SDS011;62754;48.252;11.654;2023-04-03T13:17:49;2.90;;;1.17;;
74269;SDS011;62754;48.252;11.654;2023-04-03T13:22:48;3.25;;;1.10;;
74269;SDS011;62754;48.252;11.654;2023-04-03T13:25:17;4.40;;;1.50;;
74269;SDS011;62754;48.252;11.654;2023-04-03T13:27:46;3.25;;;1.20;;
74269;SDS011;62754;48.252;11.654;2023-04-03T13:30:18;2.80;;;1.33;;
74269;SDS011;62754;48.252;11.654;2023-04-03T13:32:45;3.28;;;0.90;;
74269;SDS011;62754;48.252;11.654;2023-04-03T13:37:55;3.75;;;1.10;;
74269;SDS011;62754;48.252;11.654;2023-04-03T13:40:25;3.03;;;0.98;;
74269;SDS011;62754;48.252;11.654;2023-04-03T13:43:03;3.30;;;1.40;;
74269;SDS011;62754;48.252;11.654;2023-04-03T13:45:59;3.85;;;1.05;;
74269;SDS011;62754;48.252;11.654;2023-04-03T13:48:25;2.70;;;1.10;;
74269;SDS011;62754;48.252;11.654;2023-04-03T13:53:29;2.45;;;0.90;;
74269;SDS011;62754;48.252;11.654;2023-04-03T13:58:29;2.95;;;1.08;;
74269;SDS011;62754;48.252;11.654;2023-04-03T14:00:59;2.80;;;0.90;;
74269;SDS011;62754;48.252;11.654;2023-04-03T14:06:12;3.22;;;1.10;;
74269;SDS011;62754;48.252;11.654;2023-04-03T14:08:42;2.60;;;1.00;;
74269;SDS011;62754;48.252;11.654;2023-04-03T14:11:14;2.72;;;1.30;;
74269;SDS011;62754;48.252;11.654;2023-04-03T14:13:43;2.10;;;1.10;;
74269;SDS011;62754;48.252;11.654;2023-04-03T14:16:14;2.97;;;1.20;;
74269;SDS011;62754;48.252;11.654;2023-04-03T14:18:40;2.25;;;1.05;;
74269;SDS011;62754;48.252;11.654;2023-04-03T14:21:10;2.47;;;1.17;;
74269;SDS011;62754;48.252;11.654;2023-04-03T14:23:37;3.50;;;1.08;;
74269;SDS011;62754;48.252;11.654;2023-04-03T14:26:10;3.88;;;0.95;;
74269;SDS011;62754;48.252;11.654;2023-04-03T14:31:06;4.13;;;1.20;;
74269;SDS011;62754;48.252;11.654;2023-04-03T14:33:34;3.03;;;1.10;;
74269;SDS011;62754;48.252;11.654;2023-04-03T14:38:54;2.58;;;0.93;;
74269;SDS011;62754;48.252;11.654;2023-04-03T14:41:22;3.22;;;1.00;;
74269;SDS011;62754;48.252;11.654;2023-04-03T14:43:50;2.63;;;1.02;;
74269;SDS011;62754;48.252;11.654;2023-04-03T14:48:51;2.72;;;1.05;;
74269;SDS011;62754;48.252;11.654;2023-04-03T14:51:17;3.15;;;1.10;;
74269;SDS011;62754;48.252;11.654;2023-04-03T14:53:48;2.72;;;1.10;;
74269;SDS011;62754;48.252;11.654;2023-04-03T14:56:17;2.30;;;1.00;;
74269;SDS011;62754;48.252;11.654;2023-04-03T14:58:45;2.53;;;0.93;;
74269;SDS011;62754;48.252;11.654;2023-04-03T15:01:10;2.67;;;1.02;;
74269;SDS011;62754;48.252;11.654;2023-04-03T15:03:37;3.20;;;1.20;;
74269;SDS011;62754;48.252;11.654;2023-04-03T15:06:05;2.95;;;1.33;;
74269;SDS011;62754;48.252;11.654;2023-04-03T15:08:31;2.63;;;1.02;;
74269;SDS011;62754;48.252;11.654;2023-04-03T15:10:57;2.92;;;0.88;;
74269;SDS011;62754;48.252;11.654;2023-04-03T15:13:23;2.25;;;1.00;;
74269;SDS011;62754;48.252;11.654;2023-04-03T15:15:52;2.80;;;1.00;;
74269;SDS011;62754;48.252;11.654;2023-04-03T15:20:47;2.15;;;0.93;;
74269;SDS011;62754;48.252;11.654;2023-04-03T15:23:14;3.67;;;1.52;;
74269;SDS011;62754;48.252;11.654;2023-04-03T15:25:42;2.28;;;0.80;;
74269;SDS011;62754;48.252;11.654;2023-04-03T15:28:10;2.90;;;1.10;;
74269;SDS011;62754;48.252;11.654;2023-04-03T15:30:46;2.22;;;1.05;;
74269;SDS011;62754;48.252;11.654;2023-04-03T15:33:15;2.80;;;1.20;;
74269;SDS011;62754;48.252;11.654;2023-04-03T15:35:41;3.88;;;1.20;;
74269;SDS011;62754;48.252;11.654;2023-04-03T15:38:07;2.40;;;1.20;;
74269;SDS011;62754;48.252;11.654;2023-04-03T15:40:36;3.00;;;1.13;;
74269;SDS011;62754;48.252;11.654;2023-04-03T15:43:02;3.00;;;1.23;;
74269;SDS011;62754;48.252;11.654;2023-04-03T15:45:31;1.88;;;0.90;;
74269;SDS011;62754;48.252;11.654;2023-04-03T15:48:01;5.53;;;1.40;;
74269;SDS011;62754;48.252;11.654;2023-04-03T15:50:30;2.75;;;1.00;;
74269;SDS011;62754;48.252;11.654;2023-04-03T15:52:57;2.65;;;1.20;;
74269;SDS011;62754;48.252;11.654;2023-04-03T15:55:28;3.22;;;1.17;;
74269;SDS011;62754;48.252;11.654;2023-04-03T16:00:24;2.30;;;0.88;;
74269;SDS011;62754;48.252;11.654;2023-04-03T16:03:00;1.80;;;0.73;;
74269;SDS011;62754;48.252;11.654;2023-04-03T16:08:01;2.78;;;1.02;;
74269;SDS011;62754;48.252;11.654;2023-04-03T16:10:29;2.65;;;1.08;;
74269;SDS011;62754;48.252;11.654;2023-04-03T16:12:55;3.15;;;1.20;;
74269;SDS011;62754;48.252;11.654;2023-04-03T16:15:21;4.63;;;1.08;;
74269;SDS011;62754;48.252;11.654;2023-04-03T16:17:47;2.97;;;1.13;;
74269;SDS011;62754;48.252;11.654;2023-04-03T16:20:19;3.25;;;1.10;;
74269;SDS011;62754;48.252;11.654;2023-04-03T16:22:47;2.50;;;1.00;;
74269;SDS011;62754;48.252;11.654;2023-04-03T16:25:16;2.28;;;1.00;;
74269;SDS011;62754;48.252;11.654;2023-04-03T16:27:47;3.33;;;1.13;;
74269;SDS011;62754;48.252;11.654;2023-04-03T16:30:13;2.20;;;1.02;;
74269;SDS011;62754;48.252;11.654;2023-04-03T16:32:41;5.85;;;1.17;;
74269;SDS011;62754;48.252;11.654;2023-04-03T16:35:08;3.20;;;1.25;;
74269;SDS011;62754;48.252;11.654;2023-04-03T16:37:37;5.05;;;1.40;;
74269;SDS011;62754;48.252;11.654;2023-04-03T16:40:06;2.88;;;1.20;;
74269;SDS011;62754;48.252;11.654;2023-04-03T16:42:33;3.72;;;1.20;;
74269;SDS011;62754;48.252;11.654;2023-04-03T16:44:58;4.68;;;1.20;;
74269;SDS011;62754;48.252;11.654;2023-04-03T16:47:24;3.00;;;1.25;;
74269;SDS011;62754;48.252;11.654;2023-04-03T16:49:52;3.17;;;1.33;;
74269;SDS011;62754;48.252;11.654;2023-04-03T16:52:18;2.70;;;1.23;;
74269;SDS011;62754;48.252;11.654;2023-04-03T16:54:46;5.15;;;1.20;;
74269;SDS011;62754;48.252;11.654;2023-04-03T16:57:11;2.85;;;1.30;;
74269;SDS011;62754;48.252;11.654;2023-04-03T16:59:37;2.58;;;1.25;;
74269;SDS011;62754;48.252;11.654;2023-04-03T17:02:03;4.60;;;1.73;;
74269;SDS011;62754;48.252;11.654;2023-04-03T17:04:29;3.05;;;1.30;;
74269;SDS011;62754;48.252;11.654;2023-04-03T17:06:55;2.33;;;1.10;;
74269;SDS011;62754;48.252;11.654;2023-04-03T17:09:23;3.20;;;1.10;;
74269;SDS011;62754;48.252;11.654;2023-04-03T17:11:49;4.55;;;1.23;;
74269;SDS011;62754;48.252;11.654;2023-04-03T17:14:14;3.13;;;1.60;;